Time;durP1;ratioP1;P1;durP2;ratioP2;P2;SDS_P1;SDS_P2;PMS_P1;PMS_P2;Temp;Humidity;BMP_temperature;BMP_pressure;BME280_temperature;BME280_humidity;BME280_pressure;Samples;Min_cycle;Max_cycle;Signal;HPM_P1;HPM_P2
2022/10/05 00:00:29;;;;;;;6.53;3.13;;;10.10;99.90;9.40;100664;;;;542045;261;24182;-78
2022/10/05 00:02:57;;;;;;;6.00;3.17;;;10.10;99.90;9.40;100660;;;;542283;261;24231;-82
2022/10/05 00:05:31;;;;;;;10.80;4.40;;;10.10;99.90;9.40;100667;;;;537844;260;46702;-76
2022/10/05 00:08:11;;;;;;;8.90;3.80;;;10.10;99.90;9.30;100646;;;;548776;261;24180;-75
2022/10/05 00:10:42;;;;;;;5.67;3.40;;;10.00;99.90;9.30;100657;;;;543222;254;24216;-74
2022/10/05 00:13:16;;;;;;;6.97;3.40;;;10.00;99.90;9.30;100667;;;;550138;261;24220;-75
2022/10/05 00:15:46;;;;;;;8.37;3.63;;;10.00;99.90;9.30;100666;;;;550220;257;24224;-82
2022/10/05 00:18:15;;;;;;;4.53;2.70;;;10.00;99.90;9.30;100673;;;;542651;261;24191;-80
2022/10/05 00:20:46;;;;;;;6.13;2.33;;;10.00;99.90;9.30;100673;;;;542494;261;24202;-78
2022/10/05 00:23:17;;;;;;;5.57;3.10;;;10.00;99.90;9.30;100669;;;;542250;261;24214;-78
2022/10/05 00:25:44;;;;;;;10.43;3.33;;;10.00;99.90;9.20;100656;;;;547633;261;24196;-83
2022/10/05 00:28:27;;;;;;;4.13;2.90;;;9.90;99.90;9.20;100647;;;;542479;259;24240;-79
2022/10/05 00:30:55;;;;;;;3.67;2.83;;;9.90;99.90;9.20;100645;;;;542618;261;24173;-80
2022/10/05 00:33:23;;;;;;;4.63;3.27;;;9.90;99.90;9.20;100638;;;;542206;261;24297;-76
2022/10/05 00:35:51;;;;;;;7.13;3.10;;;9.90;99.90;9.20;100638;;;;542268;261;24194;-78
2022/10/05 00:38:19;;;;;;;3.10;2.60;;;10.00;99.90;9.20;100634;;;;542517;259;24177;-76
2022/10/05 00:41:02;;;;;;;5.07;3.30;;;9.90;99.90;9.20;100638;;;;542442;260;24397;-76
2022/10/05 00:43:48;;;;;;;8.23;3.20;;;9.90;99.90;9.30;100637;;;;550016;261;24182;-78
2022/10/05 00:46:16;;;;;;;12.27;3.43;;;10.00;99.90;9.30;100626;;;;541999;261;24218;-83
2022/10/05 00:49:01;;;;;;;12.20;3.40;;;10.00;99.90;9.30;100629;;;;550168;260;24221;-78
2022/10/05 00:51:30;;;;;;;8.90;3.27;;;10.00;99.90;9.30;100625;;;;549928;259;24185;-84
2022/10/05 00:54:23;;;;;;;6.80;3.43;;;10.00;99.90;9.30;100615;;;;547478;261;24213;-82
2022/10/05 00:57:21;;;;;;;5.33;3.37;;;10.00;99.90;9.30;100620;;;;541687;261;24180;-83
2022/10/05 01:00:07;;;;;;;7.27;4.23;;;10.00;99.90;9.30;100623;;;;542047;261;24185;-76
2022/10/05 01:02:56;;;;;;;3.67;3.13;;;9.90;99.90;9.20;100616;;;;550335;260;24178;-74
2022/10/05 01:05:43;;;;;;;5.70;3.60;;;9.90;99.90;9.20;100612;;;;549957;256;24174;-75
2022/10/05 01:08:57;;;;;;;3.53;3.20;;;9.90;99.90;9.20;100614;;;;547427;261;24188;-78
2022/10/05 01:11:43;;;;;;;4.60;3.07;;;9.90;99.90;9.10;100607;;;;549259;261;24237;-76
2022/10/05 01:14:29;;;;;;;7.90;3.30;;;9.80;99.90;9.10;100598;;;;542848;256;24211;-75
2022/10/05 01:17:02;;;;;;;3.83;3.33;;;9.80;99.90;9.10;100582;;;;550401;259;24165;-78
2022/10/05 01:19:57;;;;;;;8.93;3.90;;;9.80;99.90;9.10;100578;;;;550720;260;24223;-76
2022/10/05 01:22:58;;;;;;;6.77;3.27;;;9.80;99.90;9.10;100576;;;;542197;261;24207;-75
2022/10/05 01:25:29;;;;;;;9.10;3.67;;;9.80;99.90;9.10;100573;;;;542175;261;24254;-76
2022/10/05 01:28:12;;;;;;;5.53;3.33;;;9.70;99.90;9.00;100577;;;;547874;260;24185;-76
2022/10/05 01:30:43;;;;;;;11.57;4.60;;;9.70;99.90;9.00;100591;;;;537374;261;35856;-75
2022/10/05 01:33:32;;;;;;;10.03;4.17;;;9.70;99.90;9.00;100579;;;;547795;261;24196;-76
2022/10/05 01:36:06;;;;;;;11.27;3.50;;;9.70;99.90;8.90;100588;;;;542233;261;24193;-75
2022/10/05 01:38:37;;;;;;;10.27;4.93;;;9.60;99.90;8.90;100596;;;;545055;260;35838;-75
2022/10/05 01:41:32;;;;;;;6.83;3.53;;;9.60;99.90;8.90;100592;;;;549805;256;24220;-75
2022/10/05 01:44:16;;;;;;;6.67;3.07;;;9.60;99.90;8.90;100587;;;;549710;259;24257;-75
2022/10/05 01:46:50;;;;;;;6.73;3.60;;;9.60;99.90;8.90;100592;;;;549917;260;24185;-75
2022/10/05 01:50:01;;;;;;;5.00;3.93;;;9.60;99.90;8.90;100583;;;;550074;261;24225;-76
2022/10/05 01:52:40;;;;;;;5.17;3.10;;;9.60;99.90;9.00;100588;;;;550231;256;24186;-76
2022/10/05 01:55:29;;;;;;;5.27;3.50;;;9.70;99.90;9.00;100586;;;;541979;260;24236;-75
2022/10/05 01:58:05;;;;;;;6.67;2.93;;;9.70;99.90;9.00;100595;;;;542152;260;24246;-77
2022/10/05 02:00:33;;;;;;;6.30;3.23;;;9.70;99.90;9.00;100579;;;;547801;261;24233;-77
2022/10/05 02:03:07;;;;;;;9.33;3.50;;;9.70;99.90;9.00;100587;;;;547885;261;24202;-76
2022/10/05 02:05:35;;;;;;;4.80;3.67;;;9.70;99.90;9.10;100580;;;;550133;261;24212;-76
2022/10/05 02:08:15;;;;;;;6.37;3.57;;;9.80;99.90;9.10;100574;;;;546335;261;24266;-77
2022/10/05 02:10:49;;;;;;;10.17;3.53;;;9.80;99.90;9.10;100564;;;;549234;261;24203;-79
2022/10/05 02:13:29;;;;;;;6.03;3.63;;;9.80;99.90;9.10;100565;;;;541754;261;24195;-79
2022/10/05 02:16:00;;;;;;;5.80;4.03;;;9.80;99.90;9.10;100561;;;;552024;260;25224;-75
2022/10/05 02:18:28;;;;;;;9.73;3.67;;;9.80;99.90;9.00;100565;;;;541216;261;24253;-80
2022/10/05 02:20:56;;;;;;;11.40;4.13;;;9.70;99.90;9.00;100565;;;;537658;259;24156;-82
2022/10/05 02:23:24;;;;;;;6.13;3.87;;;9.70;99.90;9.00;100566;;;;550239;259;24160;-78
2022/10/05 02:25:52;;;;;;;4.93;3.43;;;9.70;99.90;9.00;100558;;;;549726;261;24188;-78
2022/10/05 02:28:23;;;;;;;8.00;4.27;;;9.70;99.90;8.90;100548;;;;542176;260;24192;-78
2022/10/05 02:31:00;;;;;;;9.03;3.73;;;9.60;99.90;8.90;100538;;;;553044;259;24190;-78
2022/10/05 02:33:28;;;;;;;8.97;3.73;;;9.60;99.90;8.80;100525;;;;551196;260;24307;-78
2022/10/05 02:35:59;;;;;;;5.67;3.27;;;9.50;99.90;8.80;100522;;;;548254;260;24183;-78
2022/10/05 02:38:30;;;;;;;8.27;3.67;;;9.50;99.90;8.70;100520;;;;540390;260;24186;-81
2022/10/05 02:41:00;;;;;;;9.40;3.47;;;9.50;99.90;8.70;100516;;;;542158;261;24243;-83
2022/10/05 02:43:58;;;;;;;9.17;4.27;;;9.40;99.90;8.70;100510;;;;550480;261;24166;-83
2022/10/05 02:46:41;;;;;;;6.23;3.90;;;9.30;99.90;8.60;100507;;;;542435;261;24247;-78
2022/10/05 02:49:37;;;;;;;8.07;4.80;;;9.30;99.90;8.60;100510;;;;547566;261;24211;-77
2022/10/05 02:52:10;;;;;;;5.90;4.13;;;9.30;99.90;8.50;100504;;;;542243;261;24239;-83
2022/10/05 02:54:47;;;;;;;6.67;4.40;;;9.20;99.90;8.40;100508;;;;550935;259;24207;-84
2022/10/05 02:57:26;;;;;;;9.63;4.23;;;9.20;99.90;8.40;100507;;;;542204;261;24198;-76
2022/10/05 02:59:58;;;;;;;6.23;4.20;;;9.00;99.90;8.40;100505;;;;550446;260;24170;-80
2022/10/05 03:02:44;;;;;;;10.60;4.70;;;9.00;99.90;8.30;100503;;;;550731;259;24153;-82
2022/10/05 03:05:46;;;;;;;7.57;4.33;;;9.00;99.90;8.30;100507;;;;547037;261;24240;-76
2022/10/05 03:08:17;;;;;;;7.63;4.57;;;9.00;99.90;8.20;100493;;;;550281;258;24173;-75
2022/10/05 03:11:06;;;;;;;6.90;4.63;;;8.90;99.90;8.20;100485;;;;549615;254;24170;-76
2022/10/05 03:13:58;;;;;;;11.17;5.27;;;8.90;99.90;8.10;100486;;;;542034;261;24193;-75
2022/10/05 03:16:38;;;;;;;6.63;4.60;;;8.90;99.90;8.10;100492;;;;542107;261;24194;-78
2022/10/05 03:19:18;;;;;;;7.07;4.63;;;8.80;99.90;8.00;100494;;;;547501;261;24182;-74
2022/10/05 03:22:01;;;;;;;10.30;4.67;;;8.70;99.90;8.00;100500;;;;542054;261;24152;-77
2022/10/05 03:24:41;;;;;;;7.10;4.17;;;8.70;99.90;7.90;100490;;;;552427;259;24231;-78
2022/10/05 03:27:32;;;;;;;15.98;7.22;;;8.60;99.90;7.90;100492;;;;537482;261;35678;-75
2022/10/05 03:30:03;;;;;;;5.20;4.43;;;8.70;99.90;7.90;100492;;;;548152;261;24210;-77
2022/10/05 03:33:12;;;;;;;7.30;4.67;;;8.60;99.90;7.90;100495;;;;550844;260;24185;-83
2022/10/05 03:35:52;;;;;;;8.40;5.27;;;8.70;99.90;7.90;100494;;;;544577;260;24179;-76
2022/10/05 03:38:41;;;;;;;6.03;5.33;;;8.60;99.90;7.90;100484;;;;533189;266;24237;-80
2022/10/05 03:41:33;;;;;;;8.00;4.93;;;8.70;99.90;7.90;100484;;;;543431;260;24170;-84
2022/10/05 03:44:09;;;;;;;10.60;5.43;;;8.70;99.90;8.00;100484;;;;548604;261;24209;-79
2022/10/05 03:46:46;;;;;;;9.27;5.00;;;8.70;99.90;8.00;100479;;;;533726;264;24247;-84
2022/10/05 03:49:35;;;;;;;9.03;4.77;;;8.70;99.90;8.00;100480;;;;550263;260;24148;-81
2022/10/05 03:52:12;;;;;;;13.63;4.87;;;8.70;99.90;8.00;100476;;;;550309;261;24148;-77
2022/10/05 03:54:42;;;;;;;13.70;7.30;;;8.70;99.90;8.00;100482;;;;528179;264;38291;-82
2022/10/05 03:57:13;;;;;;;13.20;8.38;;;8.70;99.90;8.00;100487;;;;537989;260;35674;-83
2022/10/05 04:00:03;;;;;;;13.50;6.03;;;8.70;99.90;8.00;100491;;;;550343;260;24157;-80
2022/10/05 04:02:31;;;;;;;7.60;5.40;;;8.70;99.90;7.90;100493;;;;551389;260;24182;-83
2022/10/05 04:05:09;;;;;;;6.67;4.47;;;8.60;99.90;7.90;100486;;;;534473;261;24194;-84
2022/10/05 04:07:51;;;;;;;9.77;4.73;;;8.60;99.90;7.90;100481;;;;538542;265;24235;-83
2022/10/05 04:10:19;;;;;;;7.33;4.83;;;8.60;99.90;7.90;100469;;;;543302;261;24197;-82
2022/10/05 04:12:48;;;;;;;11.23;4.93;;;8.60;99.90;7.90;100467;;;;530812;264;24202;-82
2022/10/05 04:15:25;;;;;;;7.17;4.60;;;8.60;99.90;7.90;100469;;;;532748;265;24216;-84
2022/10/05 04:17:55;;;;;;;8.67;5.00;;;8.60;99.90;7.90;100462;;;;528690;264;24212;-84
2022/10/05 04:20:45;;;;;;;10.70;5.30;;;8.60;99.90;7.90;100463;;;;532776;265;24198;-85
2022/10/05 04:23:10;;;;;;;6.40;4.60;;;8.70;99.90;7.90;100473;;;;532521;265;24267;-84
2022/10/05 04:25:56;;;;;;;5.47;4.93;;;8.70;99.90;8.00;100466;;;;535037;265;24175;-80
2022/10/05 04:28:27;;;;;;;8.63;4.90;;;8.70;99.90;8.00;100459;;;;542461;258;24210;-75
2022/10/05 04:30:55;;;;;;;9.37;4.90;;;8.70;99.90;8.00;100470;;;;542660;262;24168;-75
2022/10/05 04:33:23;;;;;;;7.03;4.60;;;8.80;99.90;8.00;100465;;;;534913;265;24202;-79
2022/10/05 04:36:13;;;;;;;8.87;5.00;;;8.80;99.90;8.10;100471;;;;535060;265;24227;-77
2022/10/05 04:39:15;;;;;;;7.57;4.90;;;8.90;99.90;8.10;100474;;;;532489;265;24206;-78
2022/10/05 04:41:48;;;;;;;10.27;5.13;;;8.90;99.90;8.20;100471;;;;538221;265;24265;-76
2022/10/05 04:44:31;;;;;;;9.50;4.70;;;8.90;99.90;8.30;100469;;;;542175;259;24176;-75
2022/10/05 04:47:20;;;;;;;10.53;4.97;;;9.00;99.90;8.30;100466;;;;535358;265;24183;-75
2022/10/05 04:50:16;;;;;;;8.20;5.43;;;9.00;99.90;8.40;100455;;;;532521;265;24178;-77
2022/10/05 04:53:13;;;;;;;6.50;4.77;;;9.10;99.90;8.40;100446;;;;537180;263;24190;-77
2022/10/05 04:55:56;;;;;;;12.40;4.63;;;9.20;99.90;8.50;100437;;;;535775;265;24252;-77
2022/10/05 04:58:27;;;;;;;6.57;4.40;;;9.20;99.90;8.60;100436;;;;534964;265;24199;-77
2022/10/05 05:01:32;;;;;;;6.13;4.50;;;9.40;99.90;8.60;100430;;;;539198;265;24180;-74
2022/10/05 05:04:12;;;;;;;16.27;4.63;;;9.30;99.90;8.70;100420;;;;533234;265;24214;-76
2022/10/05 05:07:17;;;;;;;11.87;5.37;;;9.40;99.90;8.70;100412;;;;539070;263;24215;-76
2022/10/05 05:10:22;;;;;;;11.97;6.40;;;9.50;99.90;8.80;100420;;;;535594;265;24187;-78
2022/10/05 05:13:14;;;;;;;13.43;6.43;;;9.50;99.90;8.80;100408;;;;532860;265;24187;-75
2022/10/05 05:16:10;;;;;;;11.10;6.20;;;9.50;99.90;8.90;100411;;;;533520;262;24193;-77
2022/10/05 05:19:15;;;;;;;14.30;5.57;;;9.60;99.90;8.90;100416;;;;533250;265;24210;-77
2022/10/05 05:22:07;;;;;;;7.27;5.40;;;9.70;99.90;8.90;100414;;;;542907;263;24206;-75
2022/10/05 05:24:59;;;;;;;7.80;6.30;;;9.60;99.90;9.00;100430;;;;534737;265;24170;-81
2022/10/05 05:27:55;;;;;;;9.23;5.40;;;9.70;99.90;9.10;100439;;;;542143;264;24204;-77
2022/10/05 05:30:41;;;;;;;8.23;6.13;;;9.80;99.90;9.10;100439;;;;532351;265;24199;-76
2022/10/05 05:33:39;;;;;;;6.97;5.50;;;9.90;99.90;9.20;100426;;;;533056;265;24196;-75
2022/10/05 05:36:22;;;;;;;8.47;5.67;;;9.90;99.90;9.20;100434;;;;532999;265;24210;-76
2022/10/05 05:38:56;;;;;;;14.13;5.90;;;9.90;99.90;9.30;100434;;;;532483;265;24197;-80
2022/10/05 05:41:35;;;;;;;8.97;5.30;;;10.00;99.90;9.30;100447;;;;533796;265;24186;-83
2022/10/05 05:44:15;;;;;;;9.50;5.43;;;10.00;99.90;9.40;100433;;;;534369;263;24261;-81
2022/10/05 05:47:08;;;;;;;9.63;5.40;;;10.10;99.90;9.40;100432;;;;542705;254;24180;-82
2022/10/05 05:50:12;;;;;;;9.90;5.30;;;10.10;99.90;9.50;100436;;;;535317;263;24184;-85
2022/10/05 05:52:45;;;;;;;11.70;5.70;;;10.20;99.90;9.60;100445;;;;535324;263;24172;-82
2022/10/05 05:55:23;;;;;;;13.10;5.40;;;10.30;99.90;9.80;100445;;;;538147;265;24225;-81
2022/10/05 05:57:59;;;;;;;9.10;5.57;;;10.60;99.90;10.00;100437;;;;535277;263;24180;-84
2022/10/05 06:00:46;;;;;;;6.30;5.57;;;10.90;99.90;10.30;100423;;;;535055;265;24233;-83
2022/10/05 06:03:22;;;;;;;14.33;5.23;;;10.90;99.90;10.60;100435;;;;533723;265;24170;-84
2022/10/05 06:05:59;;;;;;;9.63;5.30;;;11.20;99.90;10.80;100434;;;;534118;265;24186;-83
2022/10/05 06:08:35;;;;;;;7.20;4.80;;;11.50;99.90;11.20;100443;;;;539274;263;24231;-81
2022/10/05 06:11:09;;;;;;;9.10;4.20;;;11.80;99.90;11.80;100436;;;;536121;262;24174;-85
2022/10/05 06:13:34;;;;;;;11.87;4.43;;;12.90;99.90;12.30;100433;;;;535178;263;24193;-75
2022/10/05 06:16:08;;;;;;;5.07;3.80;;;12.90;99.90;12.70;100431;;;;539336;265;24203;-77
2022/10/05 06:18:36;;;;;;;4.60;4.00;;;13.30;99.90;13.00;100437;;;;533556;265;24202;-75
2022/10/05 06:21:11;;;;;;;7.53;4.47;;;13.80;99.90;13.10;100437;;;;539003;265;24180;-74
2022/10/05 06:23:47;;;;;;;4.17;3.67;;;13.80;99.90;13.40;100427;;;;532683;265;24197;-76
2022/10/05 06:26:33;;;;;;;5.03;3.60;;;14.00;99.90;13.70;100426;;;;535037;265;24237;-79
2022/10/05 06:29:01;;;;;;;5.10;3.93;;;14.30;99.90;13.90;100412;;;;543248;260;24285;-77
2022/10/05 06:31:47;;;;;;;6.90;3.57;;;14.50;99.90;13.90;100414;;;;538533;265;24197;-77
2022/10/05 06:34:20;;;;;;;5.80;3.20;;;14.60;99.90;14.10;100423;;;;532826;265;24157;-79
2022/10/05 06:36:48;;;;;;;9.77;4.50;;;14.70;99.90;14.30;100425;;;;542784;261;24165;-77
2022/10/05 06:39:31;;;;;;;9.77;3.87;;;14.90;99.90;14.50;100423;;;;538274;265;24197;-75
2022/10/05 06:42:35;;;;;;;6.33;3.90;;;15.10;99.90;14.50;100424;;;;534966;265;24206;-74
2022/10/05 06:45:28;;;;;;;8.20;3.27;;;15.20;99.90;14.60;100414;;;;538269;265;24191;-75
2022/10/05 06:48:02;;;;;;;6.45;4.53;;;15.20;99.90;14.70;100436;;;;537947;262;35781;-76
2022/10/05 06:50:38;;;;;;;5.57;3.77;;;15.30;99.90;14.50;100430;;;;542906;262;24173;-77
2022/10/05 06:53:34;;;;;;;7.40;4.07;;;15.20;99.90;14.50;100436;;;;534964;265;24186;-75
2022/10/05 06:56:14;;;;;;;5.07;3.90;;;15.00;99.90;14.30;100440;;;;533067;265;24190;-75
2022/10/05 06:58:51;;;;;;;9.60;4.63;;;15.00;99.90;14.30;100427;;;;533169;265;24192;-76
2022/10/05 07:01:49;;;;;;;10.57;5.30;;;15.00;99.90;14.30;100421;;;;542921;262;24193;-75
2022/10/05 07:04:51;;;;;;;4.77;4.03;;;14.90;99.90;14.40;100433;;;;535213;265;24201;-75
2022/10/05 07:07:20;;;;;;;6.93;4.03;;;15.00;99.90;14.40;100436;;;;533215;265;24168;-75
2022/10/05 07:10:22;;;;;;;9.47;4.40;;;15.00;99.90;14.50;100442;;;;532878;265;24219;-75
2022/10/05 07:13:23;;;;;;;8.63;3.30;;;15.10;99.90;14.50;100447;;;;529884;265;24169;-76
2022/10/05 07:16:22;;;;;;;5.57;3.80;;;15.10;99.90;14.50;100443;;;;534251;265;24243;-79
2022/10/05 07:18:55;;;;;;;3.33;3.03;;;15.10;99.90;14.60;100431;;;;529609;265;24254;-76
2022/10/05 07:21:47;;;;;;;4.77;3.30;;;15.20;99.90;14.60;100427;;;;543553;261;24198;-75
2022/10/05 07:24:36;;;;;;;6.63;3.83;;;15.20;99.90;14.60;100431;;;;543669;258;24171;-74
2022/10/05 07:27:16;;;;;;;5.13;3.40;;;15.20;99.90;14.60;100457;;;;536266;265;24254;-74
2022/10/05 07:29:59;;;;;;;6.80;3.90;;;15.20;99.90;14.60;100467;;;;542999;261;24233;-75
2022/10/05 07:32:45;;;;;;;5.90;3.33;;;15.20;99.90;14.50;100460;;;;535643;265;24180;-75
2022/10/05 07:38:37;;;;;;;6.17;3.67;;;15.10;99.90;14.40;100442;;;;534600;265;24204;-74
2022/10/05 07:41:18;;;;;;;4.03;3.60;;;15.00;99.90;14.30;100440;;;;528095;265;24237;-76
2022/10/05 07:43:54;;;;;;;6.93;3.70;;;15.00;99.90;14.20;100427;;;;533145;265;24180;-76
2022/10/05 07:46:43;;;;;;;5.13;4.00;;;14.90;99.90;14.10;100433;;;;542819;261;24188;-76
2022/10/05 07:49:16;;;;;;;6.13;3.93;;;14.70;99.90;13.90;100423;;;;532741;265;24222;-74
2022/10/05 07:52:02;;;;;;;4.43;3.53;;;14.60;99.90;13.80;100430;;;;535264;263;24177;-76
2022/10/05 07:54:45;;;;;;;6.43;4.30;;;14.40;99.90;13.70;100434;;;;549589;258;24305;-75
2022/10/05 07:57:33;;;;;;;5.30;3.80;;;14.40;99.90;13.70;100426;;;;547284;261;24134;-75
2022/10/05 08:00:02;;;;;;;8.57;4.47;;;14.30;99.90;13.80;100423;;;;541874;261;24165;-75
2022/10/05 08:02:43;;;;;;;5.73;3.97;;;14.40;99.90;13.90;100421;;;;537712;265;24243;-73
2022/10/05 08:05:26;;;;;;;7.07;4.17;;;14.60;99.90;14.00;100420;;;;532940;266;24202;-75
2022/10/05 08:08:25;;;;;;;7.63;3.80;;;14.80;99.90;14.20;100422;;;;544251;260;24202;-74
2022/10/05 08:11:05;;;;;;;7.03;3.87;;;14.70;99.90;14.40;100423;;;;544258;260;24237;-76
2022/10/05 08:13:48;;;;;;;3.90;3.33;;;15.20;99.90;14.60;100419;;;;551971;260;24173;-74
2022/10/05 08:16:16;;;;;;;7.53;3.63;;;15.20;99.90;14.90;100418;;;;552185;260;24258;-76
2022/10/05 08:18:56;;;;;;;6.60;4.00;;;15.40;99.90;15.00;100418;;;;568665;243;24146;-82
2022/10/05 08:21:36;;;;;;;5.13;3.87;;;15.60;99.90;15.10;100431;;;;567896;248;24084;-82
2022/10/05 08:24:13;;;;;;;6.77;4.60;;;15.70;99.90;15.30;100430;;;;567869;248;24131;-82
2022/10/05 08:26:40;;;;;;;8.20;3.93;;;15.80;99.90;15.50;100442;;;;591770;241;24073;-82
2022/10/05 08:29:26;;;;;;;4.47;3.67;;;16.00;99.90;15.70;100442;;;;568331;248;24147;-81
2022/10/05 08:32:00;;;;;;;5.57;3.50;;;16.20;99.90;16.00;100457;;;;569807;248;24108;-82
2022/10/05 08:34:49;;;;;;;12.63;4.40;;;16.40;99.90;16.30;100451;;;;568812;248;24101;-82
2022/10/05 08:37:34;;;;;;;5.53;3.90;;;16.80;99.90;16.70;100448;;;;585580;243;24104;-82
2022/10/05 08:40:20;;;;;;;4.73;3.53;;;17.60;99.90;17.10;100456;;;;582233;243;24063;-82
2022/10/05 08:42:58;;;;;;;5.30;3.20;;;17.60;99.90;17.50;100462;;;;580460;243;24127;-83
2022/10/05 08:45:47;;;;;;;7.07;3.57;;;18.00;99.90;17.90;100466;;;;588425;243;24124;-84
2022/10/05 08:48:58;;;;;;;4.80;3.53;;;18.40;99.90;18.20;100462;;;;568082;248;24131;-82
2022/10/05 08:51:44;;;;;;;5.70;4.07;;;18.80;99.90;18.70;100465;;;;583003;243;24092;-83
2022/10/05 08:54:21;;;;;;;5.17;4.07;;;19.20;99.90;18.90;100470;;;;568092;248;24111;-84
2022/10/05 08:57:07;;;;;;;4.87;3.43;;;19.50;99.90;19.00;100472;;;;578704;243;24133;-82
2022/10/05 08:59:50;;;;;;;7.20;3.83;;;19.60;99.90;19.10;100461;;;;582906;243;24068;-84
2022/10/05 09:03:07;;;;;;;6.53;3.60;;;19.70;99.90;19.40;100468;;;;568240;248;24151;-82
2022/10/05 09:06:15;;;;;;;6.87;4.27;;;20.00;99.90;19.60;100463;;;;583393;243;24108;-82
2022/10/05 09:09:10;;;;;;;6.37;3.40;;;20.20;99.90;19.60;100455;;;;582705;243;23117;-82
2022/10/05 09:11:43;;;;;;;4.93;3.80;;;20.30;99.90;19.70;100442;;;;582581;243;24084;-82
2022/10/05 09:14:26;;;;;;;6.13;3.30;;;20.30;99.90;19.80;100444;;;;559623;252;24087;-81
2022/10/05 09:17:15;;;;;;;4.67;3.63;;;20.40;99.90;19.80;100433;;;;581826;246;24128;-82
2022/10/05 09:20:04;;;;;;;8.07;3.83;;;20.40;99.90;19.50;100435;;;;568435;252;24123;-81
2022/10/05 09:22:50;;;;;;;4.53;3.87;;;20.20;99.90;19.20;100441;;;;570462;248;24062;-79
2022/10/05 09:25:45;;;;;;;7.57;3.97;;;19.90;99.90;18.90;100438;;;;577338;248;23122;-80
2022/10/05 09:28:25;;;;;;;15.47;4.83;;;19.60;99.90;18.70;100442;;;;569957;247;24137;-82
2022/10/05 09:30:56;;;;;;;39.00;7.80;;;19.30;99.90;18.60;100448;;;;576291;248;24112;-84
2022/10/05 09:33:54;;;;;;;8.40;4.23;;;19.20;99.90;18.60;100454;;;;561180;253;24119;-82
2022/10/05 09:37:02;;;;;;;5.50;3.80;;;19.10;99.90;18.50;100450;;;;573187;248;24172;-82
2022/10/05 09:40:03;;;;;;;8.57;4.37;;;19.10;99.90;18.50;100458;;;;570582;250;24110;-82
2022/10/05 09:43:03;;;;;;;7.40;4.37;;;19.00;99.90;18.50;100457;;;;583939;245;24059;-82
2022/10/05 09:45:52;;;;;;;6.03;3.80;;;19.00;99.90;18.50;100456;;;;571685;247;23069;-83
2022/10/05 09:48:41;;;;;;;5.97;4.40;;;19.00;99.90;18.70;100448;;;;560455;253;24166;-82
2022/10/05 09:51:29;;;;;;;4.27;3.83;;;19.10;99.90;18.90;100455;;;;572540;247;24060;-80
2022/10/05 09:54:21;;;;;;;8.03;4.23;;;19.40;99.90;19.20;100449;;;;562134;250;24182;-79
2022/10/05 09:57:42;;;;;;;5.80;4.47;;;19.60;99.90;19.40;100461;;;;580238;245;24127;-80
2022/10/05 10:00:35;;;;;;;8.27;4.90;;;20.00;99.90;19.60;100466;;;;559014;251;24101;-79
2022/10/05 10:03:43;;;;;;;5.60;4.43;;;20.00;99.90;20.10;100480;;;;581043;243;24079;-80
2022/10/05 10:06:19;;;;;;;6.73;3.40;;;20.50;99.90;20.50;100476;;;;585011;243;24074;-78
2022/10/05 10:09:17;;;;;;;9.83;4.00;;;21.00;99.90;20.50;100479;;;;559274;252;24069;-81
2022/10/05 10:12:18;;;;;;;8.07;3.57;;;21.10;99.90;20.40;100468;;;;550380;253;23067;-80
2022/10/05 10:15:44;;;;;;;6.13;4.00;;;21.00;99.90;20.20;100455;;;;550320;256;24212;-80
2022/10/05 10:18:27;;;;;;;5.47;3.70;;;20.80;99.90;20.10;100460;;;;575480;247;23092;-78
2022/10/05 10:21:04;;;;;;;6.87;3.90;;;20.70;99.90;19.90;100460;;;;578649;247;24085;-79
2022/10/05 10:23:38;;;;;;;8.80;4.37;;;20.50;99.90;19.70;100458;;;;571810;248;24072;-78
2022/10/05 10:26:42;;;;;;;5.77;3.60;;;20.30;99.90;19.50;100451;;;;575585;248;24079;-78
2022/10/05 10:29:19;;;;;;;5.93;3.90;;;20.10;99.90;19.30;100447;;;;581066;247;24079;-76
2022/10/05 10:31:59;;;;;;;5.43;3.63;;;19.90;99.90;19.20;100447;;;;561388;254;24139;-77
2022/10/05 10:34:49;;;;;;;4.70;3.30;;;19.60;99.90;19.10;100455;;;;550705;253;24126;-79
2022/10/05 10:37:57;;;;;;;9.70;3.97;;;19.60;99.90;19.00;100453;;;;571772;249;24092;-75
2022/10/05 10:40:42;;;;;;;4.87;3.47;;;19.50;99.90;19.00;100457;;;;564882;248;24077;-78
2022/10/05 10:43:34;;;;;;;4.87;3.50;;;19.50;99.90;19.10;100454;;;;554273;254;24123;-76
2022/10/05 10:46:46;;;;;;;6.50;3.77;;;19.70;99.90;19.20;100442;;;;569702;249;24099;-73
2022/10/05 10:49:28;;;;;;;6.67;3.70;;;19.60;99.90;19.30;100436;;;;570670;246;24142;-79
2022/10/05 10:52:11;;;;;;;6.80;4.13;;;19.80;99.90;19.40;100436;;;;565154;247;24076;-84
2022/10/05 10:54:44;;;;;;;4.13;3.63;;;19.80;99.90;19.40;100441;;;;580149;247;24208;-84
2022/10/05 10:57:36;;;;;;;7.40;3.60;;;19.80;99.90;19.30;100441;;;;569776;248;24134;-84
2022/10/05 11:00:19;;;;;;;6.10;3.67;;;19.80;99.90;19.10;100440;;;;571256;248;24127;-83
2022/10/05 11:02:52;;;;;;;7.10;4.50;;;19.70;99.90;19.10;100432;;;;571480;248;23112;-83
2022/10/05 11:05:50;;;;;;;5.70;3.97;;;19.60;99.90;19.20;100429;;;;571130;248;24081;-84
2022/10/05 11:08:46;;;;;;;7.47;3.80;;;19.60;99.90;19.20;100425;;;;568395;248;23124;-83
2022/10/05 11:11:29;;;;;;;6.40;3.30;;;19.70;99.90;19.20;100428;;;;570448;248;24120;-84
2022/10/05 11:14:09;;;;;;;5.23;3.73;;;19.70;99.90;19.20;100431;;;;565950;248;23140;-80
2022/10/05 11:16:54;;;;;;;5.30;3.40;;;19.70;99.90;19.20;100426;;;;570184;248;24122;-84
2022/10/05 11:19:43;;;;;;;3.87;3.57;;;19.70;99.90;19.10;100433;;;;569879;248;24118;-80
2022/10/05 11:22:45;;;;;;;5.93;3.83;;;19.70;99.90;19.00;100428;;;;570135;248;24136;-79
2022/10/05 11:25:40;;;;;;;7.57;3.60;;;19.50;99.90;19.00;100435;;;;568012;248;24086;-79
2022/10/05 11:28:26;;;;;;;8.20;3.37;;;19.50;99.90;18.90;100434;;;;569787;248;23135;-79
2022/10/05 11:31:22;;;;;;;6.20;4.13;;;19.40;99.90;18.80;100438;;;;569999;248;24154;-79
2022/10/05 11:34:14;;;;;;;8.37;3.77;;;19.30;99.90;18.80;100435;;;;569651;248;24111;-80
2022/10/05 11:37:12;;;;;;;5.10;3.70;;;19.30;99.90;18.80;100436;;;;568066;248;24135;-79
2022/10/05 11:39:46;;;;;;;9.03;3.57;;;19.30;99.90;18.70;100428;;;;578807;247;24079;-79
2022/10/05 11:42:31;;;;;;;4.90;3.67;;;19.10;99.90;18.60;100424;;;;567065;248;24085;-81
2022/10/05 11:45:14;;;;;;;4.60;3.63;;;19.10;99.90;18.70;100428;;;;569685;248;24146;-80
2022/10/05 11:47:59;;;;;;;6.10;3.67;;;19.10;99.90;18.60;100422;;;;578524;248;24080;-79
2022/10/05 11:50:58;;;;;;;4.53;3.43;;;19.10;99.90;18.60;100438;;;;569581;248;24264;-81
2022/10/05 11:53:56;;;;;;;3.60;3.33;;;19.10;99.90;18.50;100423;;;;569968;248;24095;-81
2022/10/05 11:56:26;;;;;;;7.67;3.60;;;19.00;99.90;18.50;100421;;;;567042;248;24095;-83
2022/10/05 11:58:57;;;;;;;4.33;3.47;;;19.00;99.90;18.50;100423;;;;578487;248;24080;-81
2022/10/05 12:01:27;;;;;;;8.10;3.43;;;19.00;99.90;18.40;100431;;;;579154;246;24088;-80
2022/10/05 12:03:58;;;;;;;8.23;3.60;;;18.90;99.90;18.40;100434;;;;571183;248;24098;-80
2022/10/05 12:07:06;;;;;;;5.03;3.57;;;18.90;99.90;18.40;100427;;;;579585;248;24103;-82
2022/10/05 12:10:16;;;;;;;9.60;3.93;;;18.90;99.90;18.40;100434;;;;571089;248;24071;-80
2022/10/05 12:13:12;;;;;;;7.53;3.80;;;18.90;99.90;18.30;100425;;;;568302;248;24080;-80
2022/10/05 12:15:43;;;;;;;5.70;3.53;;;18.80;99.90;18.40;100428;;;;570376;248;26329;-79
2022/10/05 12:18:12;;;;;;;5.77;3.77;;;18.80;99.90;18.50;100426;;;;570934;248;24131;-81
2022/10/05 12:20:45;;;;;;;4.63;3.80;;;18.90;99.90;18.50;100426;;;;578990;248;24081;-81
2022/10/05 12:23:34;;;;;;;3.90;3.27;;;19.00;99.90;18.60;100434;;;;566596;248;24156;-79
2022/10/05 12:26:20;;;;;;;8.20;3.83;;;19.10;99.90;18.60;100438;;;;578860;248;24098;-80
2022/10/05 12:28:50;;;;;;;7.07;3.87;;;19.10;99.90;18.50;100430;;;;569913;248;24097;-82
2022/10/05 12:31:48;;;;;;;10.37;4.13;;;19.00;99.90;18.50;100436;;;;579119;248;24113;-80